Time;durP1;ratioP1;P1;durP2;ratioP2;P2;SDS_P1;SDS_P2;PMS_P1;PMS_P2;Temp;Humidity;BMP_temperature;BMP_pressure;BME280_temperature;BME280_humidity;BME280_pressure;Samples;Min_cycle;Max_cycle;Signal;HPM_P1;HPM_P2
2022/03/09 00:01:27;;;;;;;6.65;3.28;;;3.40;72.40;;;;;;4982452;28;20042;-84
2022/03/09 00:03:53;;;;;;;6.80;3.40;;;4.30;73.10;;;;;;4982449;28;20088;-84
2022/03/09 00:06:18;;;;;;;8.43;3.72;;;3.40;72.90;;;;;;4997928;28;20485;-84
2022/03/09 00:08:44;;;;;;;8.88;3.75;;;3.40;73.10;;;;;;4966073;28;20038;-84
2022/03/09 00:11:10;;;;;;;7.53;4.22;;;3.40;73.20;;;;;;4998531;28;20041;-84
2022/03/09 00:13:36;;;;;;;7.63;4.07;;;3.60;73.80;;;;;;5014787;28;20077;-84
2022/03/09 00:16:02;;;;;;;7.40;4.10;;;3.80;74.10;;;;;;4966082;28;20465;-84
2022/03/09 00:18:28;;;;;;;7.88;3.97;;;3.30;74.40;;;;;;4965993;28;20038;-84
2022/03/09 00:20:53;;;;;;;7.63;4.15;;;3.20;74.90;;;;;;4998361;28;20053;-84
2022/03/09 00:23:19;;;;;;;7.90;3.92;;;3.20;75.50;;;;;;4981430;28;20084;-84
2022/03/09 00:25:45;;;;;;;8.02;3.95;;;3.10;76.10;;;;;;4998337;28;20037;-84
2022/03/09 00:28:10;;;;;;;6.72;3.95;;;2.90;76.10;;;;;;4981838;28;20052;-84
2022/03/09 00:30:36;;;;;;;6.93;3.80;;;3.10;77.50;;;;;;4981972;28;20412;-84
2022/03/09 00:33:02;;;;;;;7.70;3.95;;;2.70;78.70;;;;;;4981557;28;20042;-84
2022/03/09 00:35:28;;;;;;;7.18;3.65;;;2.50;80.30;;;;;;4998382;28;20045;-84
2022/03/09 00:37:53;;;;;;;8.07;3.90;;;2.50;80.90;;;;;;4997176;28;20037;-84
2022/03/09 00:40:19;;;;;;;10.30;4.40;;;2.50;80.80;;;;;;4998054;28;20049;-84
2022/03/09 00:42:45;;;;;;;7.85;3.67;;;2.60;80.20;;;;;;4998089;28;20049;-84
2022/03/09 00:45:11;;;;;;;8.57;4.05;;;2.60;81.00;;;;;;4997976;28;20084;-84
2022/03/09 00:47:37;;;;;;;7.00;3.83;;;2.70;80.40;;;;;;4998006;28;20133;-84
2022/03/09 00:50:04;;;;;;;9.57;4.20;;;2.80;79.70;;;;;;5030574;28;20045;-84
2022/03/09 00:52:30;;;;;;;8.23;4.13;;;2.90;80.00;;;;;;5029614;28;20034;-84
2022/03/09 00:54:56;;;;;;;7.60;4.32;;;2.90;79.40;;;;;;4997993;28;20037;-84
2022/03/09 00:57:22;;;;;;;7.43;4.20;;;3.00;79.10;;;;;;4997297;28;20065;-84
2022/03/09 00:59:48;;;;;;;7.55;4.47;;;2.90;79.00;;;;;;4981728;28;20776;-84
2022/03/09 01:02:14;;;;;;;9.10;4.55;;;2.90;79.60;;;;;;5030234;28;20053;-84
2022/03/09 01:04:40;;;;;;;7.95;4.25;;;4.00;80.50;;;;;;4997179;28;20398;-84
2022/03/09 01:07:06;;;;;;;8.30;4.65;;;2.90;79.80;;;;;;4996183;28;20038;-84
2022/03/09 01:09:32;;;;;;;8.43;4.43;;;2.80;80.40;;;;;;4997444;28;20180;-84
2022/03/09 01:11:57;;;;;;;8.77;4.45;;;2.80;80.50;;;;;;5030011;28;20084;-84
2022/03/09 01:14:24;;;;;;;9.20;4.60;;;3.00;80.60;;;;;;5030253;28;20557;-84
2022/03/09 01:16:50;;;;;;;10.85;4.80;;;2.80;80.90;;;;;;4981426;28;20049;-84
2022/03/09 01:19:16;;;;;;;8.73;4.50;;;2.80;80.70;;;;;;4997716;28;20523;-84
2022/03/09 01:21:42;;;;;;;8.25;4.38;;;2.90;81.20;;;;;;4980056;28;20141;-84
2022/03/09 01:24:08;;;;;;;11.00;5.00;;;2.70;81.00;;;;;;4997122;28;20125;-84
2022/03/09 01:26:34;;;;;;;8.57;4.57;;;2.70;81.50;;;;;;4980614;28;20050;-84
2022/03/09 01:29:00;;;;;;;8.15;4.60;;;2.90;81.90;;;;;;5029812;28;20125;-84
2022/03/09 01:31:26;;;;;;;8.13;4.80;;;2.70;82.40;;;;;;4997147;28;20113;-84
2022/03/09 01:33:52;;;;;;;9.73;5.28;;;2.60;82.90;;;;;;4997299;28;20033;-84
2022/03/09 01:36:18;;;;;;;9.40;5.13;;;2.60;84.00;;;;;;4979996;28;20040;-84
2022/03/09 01:38:43;;;;;;;9.93;4.95;;;2.50;84.30;;;;;;5029709;28;20050;-84
2022/03/09 01:41:09;;;;;;;8.57;5.28;;;2.80;85.10;;;;;;4997046;28;20037;-84
2022/03/09 01:43:35;;;;;;;8.60;4.93;;;2.50;86.10;;;;;;5029546;28;20046;-84
2022/03/09 01:46:01;;;;;;;10.32;5.15;;;2.50;86.40;;;;;;5013290;28;20049;-84
2022/03/09 01:48:26;;;;;;;10.43;5.05;;;3.00;86.30;;;;;;4980433;28;20038;-84
2022/03/09 01:50:52;;;;;;;10.82;5.15;;;2.50;86.70;;;;;;4996872;28;20493;-84
2022/03/09 01:53:18;;;;;;;9.63;5.18;;;3.40;87.70;;;;;;5004833;28;20080;-84
2022/03/09 01:55:45;;;;;;;9.15;5.18;;;2.40;87.30;;;;;;4993582;28;20061;-84
2022/03/09 01:58:10;;;;;;;9.90;5.10;;;2.40;87.30;;;;;;4993111;28;20054;-84
2022/03/09 02:00:36;;;;;;;10.57;5.28;;;2.40;87.40;;;;;;4993454;28;20397;-84
2022/03/09 02:03:02;;;;;;;9.40;5.28;;;2.70;87.90;;;;;;4976886;28;20053;-84
2022/03/09 02:05:28;;;;;;;10.48;5.13;;;2.40;89.00;;;;;;4976919;28;20046;-84
2022/03/09 02:10:39;;;;;;;10.68;6.03;;;2.20;90.40;;;;;;4979297;28;20038;-84
2022/03/09 02:13:07;;;;;;;9.05;5.60;;;2.00;90.30;;;;;;4976897;28;20042;-84
2022/03/09 02:15:33;;;;;;;10.52;5.78;;;1.80;92.00;;;;;;4976741;28;20038;-84
2022/03/09 02:18:01;;;;;;;9.70;5.43;;;1.60;92.30;;;;;;4976335;28;20046;-84
2022/03/09 02:20:27;;;;;;;8.48;5.05;;;1.80;92.10;;;;;;4976880;28;20124;-84
2022/03/09 02:22:53;;;;;;;9.88;5.38;;;1.90;92.10;;;;;;4991993;28;20165;-85
2022/03/09 02:25:20;;;;;;;9.20;5.35;;;1.70;92.30;;;;;;4992964;28;20084;-84
2022/03/09 02:27:46;;;;;;;9.65;5.43;;;2.10;92.70;;;;;;4992810;28;20532;-84
2022/03/09 02:30:14;;;;;;;9.57;5.35;;;1.80;92.70;;;;;;4976909;28;20489;-84
2022/03/09 02:32:45;;;;;;;8.88;5.03;;;1.80;92.60;;;;;;4992714;28;20084;-84
2022/03/09 02:35:12;;;;;;;9.23;5.40;;;1.80;93.00;;;;;;4992689;28;20034;-84
2022/03/09 02:37:41;;;;;;;8.88;5.22;;;1.80;93.00;;;;;;4975593;28;20084;-84
2022/03/09 02:40:09;;;;;;;8.57;4.80;;;2.10;93.40;;;;;;4976391;28;20038;-84
2022/03/09 02:42:35;;;;;;;9.32;5.30;;;1.70;93.40;;;;;;4989400;28;20046;-84
2022/03/09 02:45:03;;;;;;;10.20;5.60;;;1.70;93.50;;;;;;4992623;28;20100;-84
2022/03/09 02:47:28;;;;;;;10.45;5.35;;;1.70;93.10;;;;;;4960252;28;20038;-84
2022/03/09 02:49:54;;;;;;;9.80;5.05;;;1.70;93.00;;;;;;5009224;28;20030;-84
2022/03/09 02:52:20;;;;;;;10.65;5.18;;;1.70;93.10;;;;;;4991712;28;20085;-84
2022/03/09 02:54:45;;;;;;;9.70;5.50;;;1.70;93.50;;;;;;4944603;28;20039;-84
2022/03/09 02:57:11;;;;;;;8.48;4.90;;;2.10;94.00;;;;;;4959997;28;20483;-84
2022/03/09 02:59:37;;;;;;;10.05;4.93;;;1.60;94.30;;;;;;4976238;28;20047;-83
2022/03/09 03:02:03;;;;;;;9.68;4.93;;;1.50;94.50;;;;;;4944293;28;20513;-83
2022/03/09 03:04:28;;;;;;;9.75;4.72;;;1.50;95.30;;;;;;4976439;28;20054;-83
2022/03/09 03:06:54;;;;;;;8.73;4.53;;;1.50;95.40;;;;;;4991469;28;20137;-83
2022/03/09 03:09:20;;;;;;;9.82;4.95;;;1.50;95.20;;;;;;4944497;28;20038;-83
2022/03/09 03:11:45;;;;;;;8.52;4.97;;;1.50;95.50;;;;;;4959986;28;20038;-83
2022/03/09 03:14:11;;;;;;;11.35;5.68;;;1.50;95.40;;;;;;4944537;28;20124;-83
2022/03/09 03:16:37;;;;;;;10.70;5.60;;;1.70;95.80;;;;;;4976025;28;20042;-83
2022/03/09 03:19:03;;;;;;;9.85;5.38;;;1.50;96.30;;;;;;4976359;28;20052;-83
2022/03/09 03:21:29;;;;;;;10.75;5.80;;;1.40;96.60;;;;;;4991447;28;20482;-83
2022/03/09 03:23:55;;;;;;;11.38;6.13;;;1.90;96.50;;;;;;4960331;28;20041;-83
2022/03/09 03:26:21;;;;;;;9.93;5.82;;;1.40;96.40;;;;;;5005646;28;20478;-83
2022/03/09 03:28:46;;;;;;;10.52;5.40;;;1.90;96.90;;;;;;4996413;28;20042;-83
2022/03/09 03:31:12;;;;;;;10.63;5.90;;;1.60;96.80;;;;;;4983260;28;20389;-83
2022/03/09 03:33:38;;;;;;;9.25;5.75;;;1.40;96.90;;;;;;4983197;28;20042;-83
2022/03/09 03:36:04;;;;;;;10.88;5.65;;;1.40;97.10;;;;;;4999248;28;20042;-83
2022/03/09 03:38:30;;;;;;;10.00;5.93;;;1.40;97.10;;;;;;4998527;28;20501;-83
2022/03/09 03:40:56;;;;;;;11.15;6.03;;;1.40;97.00;;;;;;4999364;28;20084;-83
2022/03/09 03:43:21;;;;;;;10.68;5.90;;;1.40;97.00;;;;;;4982733;28;20045;-83
2022/03/09 03:45:47;;;;;;;9.75;5.53;;;1.70;96.80;;;;;;4998991;28;20041;-83
2022/03/09 03:48:13;;;;;;;10.55;6.00;;;1.40;96.70;;;;;;4998893;28;20069;-83
2022/03/09 03:50:38;;;;;;;11.77;6.10;;;1.40;96.40;;;;;;4998991;28;20044;-83
2022/03/09 03:53:04;;;;;;;12.98;5.90;;;1.50;96.00;;;;;;4997814;28;20038;-83
2022/03/09 03:55:30;;;;;;;10.05;5.78;;;2.00;95.70;;;;;;4998805;28;20045;-83
2022/03/09 03:57:56;;;;;;;11.77;5.95;;;1.60;95.30;;;;;;4998573;28;20053;-83
2022/03/09 04:00:23;;;;;;;10.25;6.20;;;1.60;95.70;;;;;;4999023;28;20050;-83
2022/03/09 04:02:50;;;;;;;11.48;6.35;;;1.60;96.00;;;;;;4982697;28;20613;-83
2022/03/09 04:05:16;;;;;;;9.85;6.35;;;2.20;96.40;;;;;;5031642;28;20569;-83
2022/03/09 04:07:41;;;;;;;10.18;6.22;;;1.40;96.20;;;;;;4981319;28;20129;-83
2022/03/09 04:10:07;;;;;;;10.10;5.88;;;2.10;96.90;;;;;;5024767;28;20045;-83
2022/03/09 04:12:34;;;;;;;11.13;6.25;;;1.20;96.90;;;;;;4979132;28;20077;-83
2022/03/09 04:15:00;;;;;;;10.38;5.68;;;1.10;97.00;;;;;;4979059;28;20049;-83
2022/03/09 04:17:26;;;;;;;12.60;5.85;;;2.00;97.60;;;;;;4978926;28;20102;-83
2022/03/09 04:19:52;;;;;;;10.45;5.82;;;1.10;97.60;;;;;;4979181;28;20050;-83
2022/03/09 04:22:17;;;;;;;10.38;5.40;;;1.90;97.90;;;;;;4978257;28;20046;-83
2022/03/09 04:24:43;;;;;;;12.55;6.00;;;1.20;97.80;;;;;;4978730;28;20132;-83
2022/03/09 04:27:09;;;;;;;10.90;6.50;;;1.10;97.90;;;;;;4978759;28;20477;-83
2022/03/09 04:29:35;;;;;;;10.85;6.30;;;1.10;98.00;;;;;;4978618;28;20070;-83
2022/03/09 04:32:01;;;;;;;9.80;6.40;;;1.10;98.20;;;;;;4994699;28;20045;-83
2022/03/09 04:34:27;;;;;;;10.85;6.50;;;1.00;98.40;;;;;;4978735;28;20049;-83
2022/03/09 04:36:52;;;;;;;12.52;6.43;;;1.80;98.80;;;;;;4978086;28;20034;-83
2022/03/09 04:39:18;;;;;;;10.63;5.95;;;1.00;98.70;;;;;;4978557;28;20035;-83
2022/03/09 04:41:44;;;;;;;11.20;6.50;;;1.00;98.80;;;;;;4978564;28;20046;-83
2022/03/09 04:44:10;;;;;;;11.32;6.28;;;1.00;99.10;;;;;;5013762;28;20104;-83
2022/03/09 04:46:35;;;;;;;12.65;6.28;;;1.00;99.20;;;;;;4997605;28;20038;-83
2022/03/09 04:49:01;;;;;;;10.88;6.20;;;0.90;99.20;;;;;;4981736;28;20053;-83
2022/03/09 04:51:27;;;;;;;10.60;6.43;;;0.90;99.30;;;;;;4997070;28;20049;-83
2022/03/09 04:53:52;;;;;;;9.95;6.00;;;0.80;99.50;;;;;;4997843;28;20077;-83
2022/03/09 04:56:18;;;;;;;10.73;6.65;;;0.80;99.40;;;;;;5013897;28;20046;-83
2022/03/09 04:58:44;;;;;;;12.10;6.45;;;0.80;99.60;;;;;;4981430;28;20093;-83
2022/03/09 05:01:10;;;;;;;12.88;6.85;;;0.80;99.90;;;;;;4997583;28;20559;-83
2022/03/09 05:03:37;;;;;;;12.52;6.88;;;0.80;99.90;;;;;;5013763;28;20492;-83
2022/03/09 05:06:03;;;;;;;11.93;6.75;;;1.00;99.90;;;;;;4997980;28;20393;-83
2022/03/09 05:08:29;;;;;;;11.95;6.75;;;0.80;99.90;;;;;;4980509;28;20489;-83
2022/03/09 05:10:55;;;;;;;11.55;6.60;;;0.80;99.90;;;;;;4981302;28;20038;-83
2022/03/09 05:13:21;;;;;;;10.88;6.78;;;0.90;99.90;;;;;;4997597;28;20036;-83
2022/03/09 05:15:47;;;;;;;10.77;6.55;;;0.90;99.90;;;;;;4981230;28;20042;-83
2022/03/09 05:18:13;;;;;;;12.20;7.38;;;0.90;99.90;;;;;;4981091;28;20046;-83
2022/03/09 05:20:38;;;;;;;12.38;7.13;;;1.30;99.90;;;;;;4977879;28;20405;-83
2022/03/09 05:23:04;;;;;;;13.05;6.97;;;1.40;99.90;;;;;;4977048;28;20119;-83
2022/03/09 05:25:30;;;;;;;13.15;7.20;;;1.60;99.90;;;;;;4994001;28;20051;-83
2022/03/09 05:27:56;;;;;;;13.18;7.18;;;1.40;99.90;;;;;;4977595;28;20053;-83
2022/03/09 05:30:22;;;;;;;11.90;6.85;;;0.70;99.90;;;;;;4994030;28;20371;-83
2022/03/09 05:32:47;;;;;;;11.82;6.90;;;0.70;99.90;;;;;;4961502;28;20038;-83
2022/03/09 05:35:13;;;;;;;11.20;6.72;;;0.70;99.90;;;;;;4977422;28;20124;-83
2022/03/09 05:37:42;;;;;;;11.15;6.97;;;0.60;99.90;;;;;;4992775;28;20064;-83
2022/03/09 05:40:09;;;;;;;11.50;7.38;;;0.60;99.90;;;;;;4994081;28;20501;-83
2022/03/09 05:42:36;;;;;;;11.60;7.38;;;0.50;99.90;;;;;;4993551;28;20082;-83
2022/03/09 05:45:02;;;;;;;11.35;7.53;;;0.40;99.90;;;;;;4993309;28;20038;-83
2022/03/09 05:47:28;;;;;;;12.02;6.95;;;0.90;99.90;;;;;;5011772;28;20038;-83
2022/03/09 05:49:53;;;;;;;11.30;6.57;;;0.60;99.90;;;;;;4996042;28;20107;-83
2022/03/09 05:52:19;;;;;;;9.90;6.25;;;1.50;99.90;;;;;;4979228;28;20030;-83
2022/03/09 05:54:45;;;;;;;12.05;6.38;;;0.40;99.90;;;;;;4992445;28;20039;-83
2022/03/09 05:57:12;;;;;;;10.13;6.35;;;0.50;99.90;;;;;;5009526;28;20415;-83
2022/03/09 05:59:38;;;;;;;12.25;6.85;;;0.50;99.90;;;;;;5026100;28;20050;-83
2022/03/09 06:02:04;;;;;;;11.18;6.43;;;0.60;99.90;;;;;;5009791;28;20188;-83
2022/03/09 06:04:30;;;;;;;12.05;7.10;;;0.60;99.90;;;;;;5008117;28;20111;-83
2022/03/09 06:06:55;;;;;;;11.15;6.68;;;0.50;99.90;;;;;;4973139;28;20053;-83
2022/03/09 06:09:21;;;;;;;11.70;6.78;;;0.50;99.90;;;;;;4977364;28;20497;-83
2022/03/09 06:11:47;;;;;;;13.20;7.07;;;0.50;99.90;;;;;;4979540;28;20038;-83
2022/03/09 06:14:12;;;;;;;13.38;6.32;;;0.50;99.90;;;;;;4977138;28;20569;-83
2022/03/09 06:16:38;;;;;;;12.07;6.65;;;0.50;99.90;;;;;;4978496;28;20046;-83
2022/03/09 06:19:04;;;;;;;10.60;6.50;;;0.70;99.90;;;;;;4976628;28;20108;-83
2022/03/09 06:21:30;;;;;;;12.85;7.20;;;0.90;99.90;;;;;;4943753;28;20042;-83
2022/03/09 06:23:55;;;;;;;13.93;7.00;;;0.50;99.90;;;;;;4993087;28;20516;-83
2022/03/09 06:26:21;;;;;;;12.10;6.85;;;0.50;99.90;;;;;;4960479;28;20045;-83
2022/03/09 06:28:47;;;;;;;11.95;7.38;;;1.50;99.90;;;;;;4976658;28;20125;-83
2022/03/09 06:31:12;;;;;;;11.43;6.97;;;0.50;99.90;;;;;;4972190;28;20037;-83
2022/03/09 06:33:38;;;;;;;12.25;6.95;;;0.80;99.90;;;;;;4995632;28;20046;-83
2022/03/09 06:36:06;;;;;;;11.52;7.18;;;1.90;99.90;;;;;;4995276;28;20034;-83
2022/03/09 06:38:33;;;;;;;12.13;7.20;;;0.60;99.90;;;;;;5011300;28;20053;-83
2022/03/09 06:40:59;;;;;;;11.95;6.93;;;0.60;99.90;;;;;;4995975;28;20041;-83
2022/03/09 06:43:24;;;;;;;12.25;7.28;;;0.70;99.90;;;;;;4999447;28;20481;-83
2022/03/09 06:45:50;;;;;;;13.48;6.93;;;0.80;99.90;;;;;;4992645;28;20053;-83
2022/03/09 06:48:16;;;;;;;12.40;7.72;;;0.80;99.90;;;;;;4976186;28;20490;-83
2022/03/09 06:50:43;;;;;;;13.20;7.30;;;1.70;99.90;;;;;;4976616;28;20117;-83
2022/03/09 06:53:09;;;;;;;14.02;7.32;;;1.10;99.90;;;;;;4975872;28;20038;-83
2022/03/09 06:55:35;;;;;;;10.10;6.60;;;1.80;99.90;;;;;;4976390;28;20051;-83
2022/03/09 06:58:01;;;;;;;11.60;6.70;;;1.70;99.90;;;;;;4992129;28;20133;-83
2022/03/09 07:00:27;;;;;;;12.30;7.05;;;1.40;99.90;;;;;;4979120;28;20054;-83
2022/03/09 07:02:53;;;;;;;10.80;6.38;;;1.40;99.60;;;;;;4994935;28;20046;-84
2022/03/09 07:05:19;;;;;;;12.90;6.95;;;1.40;99.30;;;;;;5015848;28;20095;-84
2022/03/09 07:07:45;;;;;;;11.40;6.47;;;1.90;99.90;;;;;;4982593;28;20045;-84
2022/03/09 07:10:13;;;;;;;11.80;6.80;;;1.50;99.60;;;;;;4999618;28;20482;-84
2022/03/09 07:12:40;;;;;;;13.20;7.28;;;1.90;99.10;;;;;;4983812;28;20096;-84
2022/03/09 07:15:06;;;;;;;10.52;5.78;;;1.80;99.10;;;;;;4999534;28;20044;-84
2022/03/09 07:17:32;;;;;;;11.15;6.65;;;1.70;98.70;;;;;;4983531;28;20049;-84
2022/03/09 07:19:57;;;;;;;12.25;7.15;;;2.50;99.20;;;;;;4983171;28;20042;-84
2022/03/09 07:22:23;;;;;;;12.27;7.20;;;2.00;99.20;;;;;;4982704;28;20129;-84
2022/03/09 07:24:49;;;;;;;10.65;7.05;;;1.80;99.60;;;;;;4983471;28;20034;-84
2022/03/09 07:27:15;;;;;;;13.35;7.40;;;2.40;99.10;;;;;;4982950;28;20084;-84
2022/03/09 07:29:41;;;;;;;13.48;7.20;;;2.00;98.80;;;;;;4983383;28;20096;-84
2022/03/09 07:32:08;;;;;;;11.88;7.22;;;2.70;99.10;;;;;;4976366;28;20030;-84
2022/03/09 07:34:34;;;;;;;12.35;7.10;;;2.20;98.80;;;;;;4964232;28;20049;-84
2022/03/09 07:37:00;;;;;;;10.93;7.10;;;3.10;98.80;;;;;;5001500;28;20031;-84
2022/03/09 07:39:27;;;;;;;13.57;7.63;;;2.40;98.10;;;;;;4979667;28;20038;-84
2022/03/09 07:41:54;;;;;;;13.50;7.40;;;2.50;98.00;;;;;;4963361;28;20049;-84
2022/03/09 07:44:21;;;;;;;11.05;7.03;;;2.60;97.90;;;;;;4979868;28;20038;-84
2022/03/09 07:46:46;;;;;;;12.13;7.07;;;2.70;96.10;;;;;;4979326;28;20069;-84
2022/03/09 07:49:12;;;;;;;12.10;6.75;;;3.20;97.00;;;;;;4963453;28;20038;-84
2022/03/09 07:51:38;;;;;;;12.73;7.82;;;3.90;96.50;;;;;;4962419;28;20077;-84
2022/03/09 07:54:03;;;;;;;11.23;7.10;;;3.10;95.10;;;;;;4963670;28;20548;-84
2022/03/09 07:56:29;;;;;;;11.63;7.05;;;3.40;95.50;;;;;;4979488;28;20042;-84
2022/03/09 07:58:55;;;;;;;11.18;6.50;;;3.90;95.60;;;;;;4963189;28;20061;-84
2022/03/09 08:01:21;;;;;;;12.52;7.00;;;3.50;92.70;;;;;;4979108;28;20046;-84
2022/03/09 08:03:46;;;;;;;13.38;7.28;;;3.60;93.70;;;;;;4969837;28;20440;-84
2022/03/09 08:06:12;;;;;;;11.60;6.90;;;3.70;92.80;;;;;;4995359;28;20085;-84
2022/03/09 08:08:38;;;;;;;11.18;6.72;;;4.20;91.60;;;;;;4994915;28;20042;-84
2022/03/09 08:11:04;;;;;;;10.10;5.70;;;4.00;91.70;;;;;;4979015;28;20046;-84
2022/03/09 08:13:30;;;;;;;10.10;6.13;;;4.20;90.00;;;;;;4978970;28;20034;-84
2022/03/09 08:15:55;;;;;;;11.43;6.15;;;4.30;90.10;;;;;;4978710;28;20046;-84
2022/03/09 08:18:21;;;;;;;10.88;6.50;;;4.50;86.90;;;;;;4995211;28;20046;-84
2022/03/09 08:20:47;;;;;;;11.35;6.25;;;5.30;86.60;;;;;;4978976;28;20082;-84
2022/03/09 08:23:13;;;;;;;10.70;5.65;;;4.80;84.40;;;;;;4977814;28;20101;-84
2022/03/09 08:25:39;;;;;;;8.15;4.70;;;5.00;78.20;;;;;;4994942;28;20557;-84
2022/03/09 08:28:05;;;;;;;9.93;4.90;;;5.20;76.30;;;;;;4994869;28;20430;-84
2022/03/09 08:30:31;;;;;;;6.93;2.95;;;5.40;75.20;;;;;;4995033;28;20034;-84
2022/03/09 08:32:57;;;;;;;10.25;4.68;;;5.50;73.20;;;;;;4978870;28;20097;-84
2022/03/09 08:35:22;;;;;;;8.68;5.25;;;6.30;72.10;;;;;;4978701;28;20129;-84
2022/03/09 08:37:48;;;;;;;8.95;5.20;;;5.70;70.10;;;;;;4977953;28;20501;-84
2022/03/09 08:40:14;;;;;;;8.98;3.83;;;5.80;70.50;;;;;;4978799;28;20041;-84
2022/03/09 08:42:40;;;;;;;8.05;4.38;;;5.90;66.20;;;;;;4981661;28;20124;-84
2022/03/09 08:45:06;;;;;;;9.18;4.80;;;6.00;67.30;;;;;;4981946;28;20046;-84
2022/03/09 08:47:31;;;;;;;10.45;4.32;;;6.10;66.00;;;;;;4997723;28;20038;-84
2022/03/09 08:49:57;;;;;;;9.60;5.45;;;6.20;67.50;;;;;;5030916;28;20089;-84
2022/03/09 08:52:23;;;;;;;10.27;4.90;;;6.40;64.50;;;;;;4997083;28;20037;-84
2022/03/09 08:54:53;;;;;;;8.65;3.55;;;6.50;64.10;;;;;;5030939;28;20501;-84
2022/03/09 08:57:22;;;;;;;10.40;5.25;;;6.60;63.40;;;;;;5030568;28;20049;-84
2022/03/09 08:59:48;;;;;;;6.18;3.28;;;6.90;64.40;;;;;;4997661;28;20057;-84
2022/03/09 09:02:14;;;;;;;9.45;5.20;;;6.90;61.50;;;;;;5030080;28;20135;-84
2022/03/09 09:04:40;;;;;;;10.43;6.20;;;6.90;63.40;;;;;;5000693;28;20038;-84
2022/03/09 09:07:06;;;;;;;9.80;6.10;;;7.10;59.70;;;;;;4976022;28;20409;-84
2022/03/09 09:09:35;;;;;;;9.10;5.43;;;7.30;60.00;;;;;;4970966;28;20030;-84
2022/03/09 09:12:02;;;;;;;11.18;6.30;;;7.60;59.60;;;;;;4988341;28;20068;-84
2022/03/09 09:14:28;;;;;;;16.33;7.25;;;7.80;56.20;;;;;;4987439;28;20041;-84
2022/03/09 09:16:54;;;;;;;9.57;5.03;;;8.00;57.10;;;;;;5010635;28;20410;-84
2022/03/09 09:19:20;;;;;;;10.27;6.35;;;8.20;53.90;;;;;;4989682;28;20038;-84
2022/03/09 09:21:47;;;;;;;12.30;6.70;;;8.30;55.70;;;;;;4987136;28;20549;-84
2022/03/09 09:24:13;;;;;;;9.68;6.22;;;8.50;55.60;;;;;;5005469;28;20120;-84
2022/03/09 09:26:39;;;;;;;10.43;5.35;;;8.60;56.60;;;;;;4982098;28;20121;-83
2022/03/09 09:29:06;;;;;;;10.10;5.90;;;8.80;51.60;;;;;;4984312;28;20117;-83
2022/03/09 09:31:33;;;;;;;11.20;6.43;;;8.80;51.60;;;;;;5029798;28;20091;-83
2022/03/09 09:33:58;;;;;;;11.55;6.03;;;8.90;54.40;;;;;;4997346;28;20044;-83
2022/03/09 09:36:25;;;;;;;8.90;5.50;;;9.10;53.80;;;;;;4996118;28;20038;-83
2022/03/09 09:38:51;;;;;;;10.23;5.57;;;9.30;49.60;;;;;;4981180;28;20065;-83
2022/03/09 09:41:19;;;;;;;8.98;5.47;;;9.30;49.30;;;;;;4997045;28;20552;-83
2022/03/09 09:43:45;;;;;;;10.90;6.30;;;9.40;49.50;;;;;;4981122;28;20049;-83
2022/03/09 09:46:13;;;;;;;10.52;6.32;;;9.50;50.30;;;;;;4996867;28;20080;-83
2022/03/09 09:48:40;;;;;;;11.57;6.28;;;9.60;51.60;;;;;;5012888;28;20168;-83
2022/03/09 09:51:07;;;;;;;14.00;6.78;;;9.80;48.90;;;;;;4996839;28;20049;-83
2022/03/09 09:53:35;;;;;;;11.20;6.00;;;9.80;50.90;;;;;;4994343;28;20045;-84
2022/03/09 09:56:02;;;;;;;12.45;7.05;;;9.80;48.90;;;;;;4991683;28;20042;-84
2022/03/09 09:58:29;;;;;;;11.75;6.35;;;9.80;49.00;;;;;;4993122;28;20081;-84
2022/03/09 10:00:58;;;;;;;12.77;6.20;;;9.80;48.30;;;;;;4961015;28;20054;-84
2022/03/09 10:03:24;;;;;;;10.40;6.70;;;9.90;49.00;;;;;;4960707;28;20130;-84
2022/03/09 10:05:50;;;;;;;9.75;6.30;;;10.00;50.00;;;;;;4960822;28;20046;-84
2022/03/09 10:08:18;;;;;;;9.82;6.25;;;10.20;51.20;;;;;;4975863;28;20042;-84
2022/03/09 10:10:58;;;;;;;10.90;6.30;;;10.40;50.70;;;;;;4976838;28;20048;-84
2022/03/09 10:13:26;;;;;;;11.23;6.00;;;10.60;50.00;;;;;;4976733;28;20129;-84
2022/03/09 10:16:19;;;;;;;9.48;5.82;;;10.70;49.50;;;;;;4992992;28;20042;-84
2022/03/09 10:18:55;;;;;;;9.82;6.45;;;10.70;45.80;;;;;;4990730;28;20469;-84
2022/03/09 10:21:26;;;;;;;9.98;6.43;;;10.60;48.20;;;;;;4975708;28;20049;-84
2022/03/09 10:24:05;;;;;;;10.93;6.85;;;10.60;46.40;;;;;;4976659;28;20039;-84
2022/03/09 10:26:34;;;;;;;10.68;6.85;;;10.70;48.10;;;;;;4992673;28;20050;-84
2022/03/09 10:29:05;;;;;;;12.43;6.63;;;10.80;49.30;;;;;;4993301;28;20046;-84
2022/03/09 10:31:39;;;;;;;10.00;6.35;;;10.90;47.80;;;;;;4992723;28;20046;-84
2022/03/09 10:34:10;;;;;;;11.20;7.38;;;11.10;45.50;;;;;;4976853;28;20034;-84
2022/03/09 10:36:37;;;;;;;10.60;7.05;;;11.20;47.80;;;;;;4991860;28;20413;-84
2022/03/09 10:39:14;;;;;;;11.40;6.43;;;11.40;49.40;;;;;;4992456;28;20041;-84
2022/03/09 10:41:41;;;;;;;10.43;6.45;;;11.70;46.90;;;;;;4981164;28;20041;-84
2022/03/09 10:44:07;;;;;;;10.93;7.05;;;11.70;45.10;;;;;;5009763;28;20053;-84
2022/03/09 10:46:48;;;;;;;12.63;7.30;;;11.50;44.40;;;;;;4992840;28;20033;-84
2022/03/09 10:49:18;;;;;;;11.52;7.20;;;11.50;47.30;;;;;;4992449;28;20046;-84
2022/03/09 10:51:50;;;;;;;10.93;6.93;;;11.70;46.20;;;;;;4975581;28;20405;-84
2022/03/09 10:54:30;;;;;;;10.33;6.90;;;11.80;45.20;;;;;;4992622;28;20498;-84
2022/03/09 10:57:10;;;;;;;11.25;7.45;;;11.90;44.50;;;;;;5002990;28;20048;-84
2022/03/09 10:59:52;;;;;;;10.90;6.20;;;11.80;45.80;;;;;;4979571;28;20502;-84
2022/03/09 11:02:20;;;;;;;15.25;6.28;;;11.80;44.20;;;;;;4993710;28;20038;-84
2022/03/09 11:05:20;;;;;;;8.93;5.20;;;11.70;44.50;;;;;;4981163;28;20072;-84
2022/03/09 11:07:47;;;;;;;9.95;6.47;;;11.70;43.10;;;;;;4984595;28;20085;-84
2022/03/09 11:10:13;;;;;;;9.43;6.00;;;11.60;46.10;;;;;;5006698;28;20445;-84
2022/03/09 11:12:39;;;;;;;10.35;6.13;;;11.70;43.90;;;;;;4976004;28;20038;-84
2022/03/09 11:15:06;;;;;;;11.30;6.75;;;11.70;44.30;;;;;;4976119;28;20034;-84
2022/03/09 11:17:33;;;;;;;11.73;6.50;;;11.70;47.50;;;;;;5008798;28;20042;-84
2022/03/09 11:19:59;;;;;;;9.43;6.55;;;11.80;45.30;;;;;;4992249;28;20038;-84
2022/03/09 11:22:25;;;;;;;8.05;4.75;;;11.80;43.50;;;;;;4986810;28;20041;-84
2022/03/09 11:24:53;;;;;;;9.93;6.95;;;11.80;42.30;;;;;;5014953;28;20048;-84
2022/03/09 11:27:20;;;;;;;12.55;7.20;;;11.70;44.90;;;;;;5014704;28;20041;-84
2022/03/09 11:29:46;;;;;;;10.18;6.70;;;11.70;46.20;;;;;;5015054;28;20041;-84
2022/03/09 11:32:14;;;;;;;10.05;6.80;;;11.70;44.10;;;;;;5023882;28;20115;-84
2022/03/09 11:34:51;;;;;;;9.85;6.32;;;11.80;43.20;;;;;;4995579;28;20038;-84
2022/03/09 11:37:35;;;;;;;9.63;5.25;;;11.80;42.40;;;;;;5001289;28;20045;-84
2022/03/09 11:40:06;;;;;;;10.85;7.10;;;11.90;41.80;;;;;;4992134;28;20051;-84
2022/03/09 11:42:37;;;;;;;10.70;6.35;;;11.90;42.90;;;;;;4979791;28;20078;-84
2022/03/09 11:45:15;;;;;;;11.20;6.80;;;12.00;43.50;;;;;;5002502;28;20530;-84
2022/03/09 11:48:04;;;;;;;10.63;6.68;;;12.00;44.00;;;;;;4988497;28;20042;-84
2022/03/09 11:50:34;;;;;;;10.50;6.43;;;12.10;43.40;;;;;;5009816;28;20041;-84
2022/03/09 11:53:06;;;;;;;9.57;6.65;;;12.30;43.80;;;;;;5004162;28;20037;-84
2022/03/09 11:55:34;;;;;;;10.15;6.63;;;12.30;43.60;;;;;;5003207;28;20065;-84
2022/03/09 11:58:05;;;;;;;9.60;5.82;;;12.30;43.60;;;;;;4991812;28;20057;-85
2022/03/09 12:00:31;;;;;;;13.25;6.60;;;12.30;42.20;;;;;;5018343;28;20056;-84
2022/03/09 12:02:58;;;;;;;10.20;6.10;;;12.30;42.60;;;;;;5001549;28;20624;-84
2022/03/09 12:05:37;;;;;;;9.60;4.50;;;12.30;41.40;;;;;;4983280;28;20070;-84
2022/03/09 12:08:09;;;;;;;9.82;6.53;;;12.30;41.90;;;;;;5007891;28;20076;-84
2022/03/09 12:10:45;;;;;;;9.65;6.50;;;12.30;42.30;;;;;;5004192;28;20030;-84
2022/03/09 12:13:42;;;;;;;8.57;5.40;;;12.30;43.80;;;;;;5006304;28;20397;-84
2022/03/09 12:16:23;;;;;;;10.05;5.88;;;12.40;39.70;;;;;;4992357;28;20034;-84
2022/03/09 12:19:09;;;;;;;9.50;5.70;;;12.40;40.30;;;;;;4997560;28;20504;-84
2022/03/09 12:21:40;;;;;;;8.98;5.13;;;12.30;39.00;;;;;;4990683;28;20553;-84
2022/03/09 12:24:05;;;;;;;9.25;5.72;;;12.30;40.70;;;;;;4988497;28;20060;-84
2022/03/09 12:26:50;;;;;;;8.82;5.63;;;12.30;41.00;;;;;;4986073;28;20041;-84
2022/03/09 12:29:21;;;;;;;9.95;7.18;;;12.30;40.50;;;;;;4999449;28;20045;-84
2022/03/09 12:32:02;;;;;;;11.07;6.28;;;12.30;41.40;;;;;;4989416;28;20088;-84
2022/03/09 12:34:30;;;;;;;7.60;4.88;;;12.40;39.00;;;;;;4993339;28;20052;-84
2022/03/09 12:36:56;;;;;;;9.90;6.68;;;12.40;40.20;;;;;;5013374;28;20147;-84
2022/03/09 12:39:23;;;;;;;9.18;6.30;;;12.40;38.90;;;;;;4986678;28;20077;-84
2022/03/09 12:42:00;;;;;;;8.30;5.30;;;12.40;39.90;;;;;;4986756;28;20042;-84
2022/03/09 12:44:29;;;;;;;10.02;5.43;;;12.40;38.40;;;;;;4990948;28;20042;-84
2022/03/09 12:46:58;;;;;;;10.63;5.35;;;12.30;38.40;;;;;;5000225;28;20057;-84
2022/03/09 12:49:52;;;;;;;9.13;6.40;;;12.30;40.90;;;;;;4992255;28;20247;-84
2022/03/09 12:52:20;;;;;;;7.22;3.65;;;12.50;40.10;;;;;;5008636;28;20124;-84